Bulktec — VRFJ3 — position and weather

sailwx.info

Track history (hours):
 
Tides and Currents Weather Stations Pressure Air Temp Water Temp Dewpoint Dewpoint Depression Visibility Wind Speed Wind Dir Waves Ship Positions

Bulktec

Last reported at 2014-Jun-18 11:13 UTC. Time now 2014-Jul-22 21:37 UTC.
Position S 37°17' E 150°22'.
Warning: this ship's position is 34 days out of date.

Length 179 m; draft 6.6 m.

Type: Cargo ship. MMSI: 3699076.

Date/timePositionNaut miles runAvg speedWind from/ knotsBaromVisibWave heightAir tempDewpointWater temp
2014-Jun-18 11:13S 37°17' E 150°22'2413.0
2014-Jun-18 09:23S 37°38' E 150°10'1112.8
2014-Jun-18 08:33S 37°45' E 149°59'1412.8
2014-Jun-18 07:27S 37°54' E 149°45'13912.8
2014-Jun-17 20:33S 39°03' E 147°10'1413.6
2014-Jun-17 19:33S 39°08' E 146°54'1313.3
2014-Jun-17 18:33S 39°15' E 146°40'1312.5
2014-Jun-17 17:33S 39°17' E 146°24'1212.3
2014-Jun-17 16:33S 39°14' E 146°08'1312.7
2014-Jun-17 15:31S 39°07' E 145°54'  
2014-Jun-10 14:06S 39°09' E 145°58'611.0
2014-Jun-10 13:33S 39°10' E 146°06'1111.0
2014-Jun-10 12:33S 39°12' E 146°20'1510.9
2014-Jun-10 11:10S 39°06' E 146°38'711.0
2014-Jun-10 10:33S 39°03' E 146°46'1211.3
2014-Jun-10 09:29S 38°59' E 146°60'1111.5
2014-Jun-10 08:30S 38°55' E 147°14'13210.9
2014-Jun-09 20:21S 37°51' E 149°41'910.9
2014-Jun-09 19:33S 37°47' E 149°51'1211.7
2014-Jun-09 18:32S 37°41' E 150°04'2310.3
2014-Jun-09 16:21S 37°22' E 150°20'277 9.9
2014-Jun-08 12:21S 33°03' E 152°18'810.2
2014-Jun-08 11:33S 32°55' E 152°22'  
Track history (hours):
 
Tides and Currents Weather Stations Pressure Air Temp Water Temp Dewpoint Dewpoint Depression Visibility Wind Speed Wind Dir Waves Ship Positions

Bulktec

Last reported at 2014-Jun-18 11:13 UTC. Time now 2014-Jul-22 21:37 UTC.
Position S 37°17' E 150°22'.
Warning: this ship's position is 34 days out of date.

Length 179 m; draft 6.6 m.

Type: Cargo ship. MMSI: 3699076.

Date/timePositionNaut miles runAvg speedWind from/ knotsBaromVisibWave heightAir tempDewpointWater temp
2014-Jun-18 11:13S 37°17' E 150°22'2413.0
2014-Jun-18 09:23S 37°38' E 150°10'1112.8
2014-Jun-18 08:33S 37°45' E 149°59'1412.8
2014-Jun-18 07:27S 37°54' E 149°45'13912.8
2014-Jun-17 20:33S 39°03' E 147°10'1413.6
2014-Jun-17 19:33S 39°08' E 146°54'1313.3
2014-Jun-17 18:33S 39°15' E 146°40'1312.5
2014-Jun-17 17:33S 39°17' E 146°24'1212.3
2014-Jun-17 16:33S 39°14' E 146°08'1312.7
2014-Jun-17 15:31S 39°07' E 145°54'  
2014-Jun-10 14:06S 39°09' E 145°58'611.0
2014-Jun-10 13:33S 39°10' E 146°06'1111.0
2014-Jun-10 12:33S 39°12' E 146°20'1510.9
2014-Jun-10 11:10S 39°06' E 146°38'711.0
2014-Jun-10 10:33S 39°03' E 146°46'1211.3
2014-Jun-10 09:29S 38°59' E 146°60'1111.5
2014-Jun-10 08:30S 38°55' E 147°14'13210.9
2014-Jun-09 20:21S 37°51' E 149°41'910.9
2014-Jun-09 19:33S 37°47' E 149°51'1211.7
2014-Jun-09 18:32S 37°41' E 150°04'2310.3
2014-Jun-09 16:21S 37°22' E 150°20'277 9.9
2014-Jun-08 12:21S 33°03' E 152°18'810.2
2014-Jun-08 11:33S 32°55' E 152°22'  

Dump ship's entire track history